sensor_id;sensor_type;location;lat;lon;timestamp;P1;durP1;ratioP1;P2;durP2;ratioP2
46751;SDS011;32497;48.936;9.270;2023-02-25T00:02:05;5.57;;;1.60;;
46751;SDS011;32497;48.936;9.270;2023-02-25T00:07:08;3.57;;;1.70;;
46751;SDS011;32497;48.936;9.270;2023-02-25T00:12:09;3.90;;;1.60;;
46751;SDS011;32497;48.936;9.270;2023-02-25T00:17:10;3.67;;;1.63;;
46751;SDS011;32497;48.936;9.270;2023-02-25T00:22:13;2.97;;;1.73;;
46751;SDS011;32497;48.936;9.270;2023-02-25T00:27:14;3.10;;;1.87;;
46751;SDS011;32497;48.936;9.270;2023-02-25T00:32:18;5.40;;;1.97;;
46751;SDS011;32497;48.936;9.270;2023-02-25T00:37:20;3.07;;;1.50;;
46751;SDS011;32497;48.936;9.270;2023-02-25T00:42:22;3.90;;;1.50;;
46751;SDS011;32497;48.936;9.270;2023-02-25T00:47:23;4.20;;;1.40;;
46751;SDS011;32497;48.936;9.270;2023-02-25T00:52:25;4.00;;;1.73;;
46751;SDS011;32497;48.936;9.270;2023-02-25T00:57:26;4.57;;;1.57;;
46751;SDS011;32497;48.936;9.270;2023-02-25T01:02:28;3.50;;;1.63;;
46751;SDS011;32497;48.936;9.270;2023-02-25T01:07:30;3.43;;;1.50;;
46751;SDS011;32497;48.936;9.270;2023-02-25T01:12:31;5.37;;;1.30;;
46751;SDS011;32497;48.936;9.270;2023-02-25T01:17:32;5.00;;;1.77;;
46751;SDS011;32497;48.936;9.270;2023-02-25T01:22:35;5.03;;;1.90;;
46751;SDS011;32497;48.936;9.270;2023-02-25T01:27:37;3.10;;;1.50;;
46751;SDS011;32497;48.936;9.270;2023-02-25T01:32:38;6.33;;;1.40;;
46751;SDS011;32497;48.936;9.270;2023-02-25T01:37:40;2.87;;;1.23;;
46751;SDS011;32497;48.936;9.270;2023-02-25T01:42:42;4.00;;;1.10;;
46751;SDS011;32497;48.936;9.270;2023-02-25T01:47:43;2.53;;;1.20;;
46751;SDS011;32497;48.936;9.270;2023-02-25T01:52:49;1.80;;;1.00;;
46751;SDS011;32497;48.936;9.270;2023-02-25T01:57:51;3.37;;;1.10;;
46751;SDS011;32497;48.936;9.270;2023-02-25T02:02:52;4.10;;;1.23;;
46751;SDS011;32497;48.936;9.270;2023-02-25T02:07:56;1.93;;;0.93;;
46751;SDS011;32497;48.936;9.270;2023-02-25T02:13:00;1.70;;;0.73;;
46751;SDS011;32497;48.936;9.270;2023-02-25T02:18:02;1.90;;;0.60;;
46751;SDS011;32497;48.936;9.270;2023-02-25T02:34:49;3.50;;;0.77;;
46751;SDS011;32497;48.936;9.270;2023-02-25T02:46:41;1.97;;;0.80;;
46751;SDS011;32497;48.936;9.270;2023-02-25T02:51:54;1.47;;;0.80;;
46751;SDS011;32497;48.936;9.270;2023-02-25T02:57:14;1.67;;;0.80;;
46751;SDS011;32497;48.936;9.270;2023-02-25T03:02:20;1.87;;;0.80;;
46751;SDS011;32497;48.936;9.270;2023-02-25T03:08:03;2.90;;;0.80;;
46751;SDS011;32497;48.936;9.270;2023-02-25T03:13:32;3.13;;;0.73;;
46751;SDS011;32497;48.936;9.270;2023-02-25T03:18:43;2.20;;;1.03;;
46751;SDS011;32497;48.936;9.270;2023-02-25T03:24:34;2.63;;;0.90;;
46751;SDS011;32497;48.936;9.270;2023-02-25T03:35:52;2.13;;;0.93;;
46751;SDS011;32497;48.936;9.270;2023-02-25T03:41:09;1.97;;;0.77;;
46751;SDS011;32497;48.936;9.270;2023-02-25T03:46:44;2.67;;;0.90;;
46751;SDS011;32497;48.936;9.270;2023-02-25T03:52:02;3.17;;;1.20;;
46751;SDS011;32497;48.936;9.270;2023-02-25T03:57:35;4.43;;;0.73;;
46751;SDS011;32497;48.936;9.270;2023-02-25T04:03:09;3.57;;;1.00;;
46751;SDS011;32497;48.936;9.270;2023-02-25T04:08:16;1.40;;;0.87;;
46751;SDS011;32497;48.936;9.270;2023-02-25T04:13:23;1.93;;;1.17;;
46751;SDS011;32497;48.936;9.270;2023-02-25T04:18:27;3.53;;;0.47;;
46751;SDS011;32497;48.936;9.270;2023-02-25T04:35:09;3.47;;;0.53;;
46751;SDS011;32497;48.936;9.270;2023-02-25T04:40:17;2.37;;;0.43;;
46751;SDS011;32497;48.936;9.270;2023-02-25T04:45:26;1.23;;;0.63;;
46751;SDS011;32497;48.936;9.270;2023-02-25T04:56:26;1.20;;;0.50;;
46751;SDS011;32497;48.936;9.270;2023-02-25T05:01:36;1.33;;;0.60;;
46751;SDS011;32497;48.936;9.270;2023-02-25T05:06:37;0.87;;;0.40;;
46751;SDS011;32497;48.936;9.270;2023-02-25T05:11:46;1.40;;;0.57;;
46751;SDS011;32497;48.936;9.270;2023-02-25T05:33:12;2.60;;;0.67;;
46751;SDS011;32497;48.936;9.270;2023-02-25T05:38:19;1.27;;;0.40;;
46751;SDS011;32497;48.936;9.270;2023-02-25T05:43:26;2.13;;;0.40;;
46751;SDS011;32497;48.936;9.270;2023-02-25T05:48:41;1.33;;;0.60;;
46751;SDS011;32497;48.936;9.270;2023-02-25T05:53:43;4.53;;;0.70;;
46751;SDS011;32497;48.936;9.270;2023-02-25T05:58:57;4.00;;;0.40;;
46751;SDS011;32497;48.936;9.270;2023-02-25T06:04:10;1.00;;;0.40;;
46751;SDS011;32497;48.936;9.270;2023-02-25T06:09:11;3.17;;;0.40;;
46751;SDS011;32497;48.936;9.270;2023-02-25T06:20:22;1.37;;;0.37;;
46751;SDS011;32497;48.936;9.270;2023-02-25T06:25:27;0.37;;;0.30;;
46751;SDS011;32497;48.936;9.270;2023-02-25T06:35:57;7.27;;;1.40;;
46751;SDS011;32497;48.936;9.270;2023-02-25T06:41:11;9.23;;;1.77;;
46751;SDS011;32497;48.936;9.270;2023-02-25T06:46:17;2.47;;;0.97;;
46751;SDS011;32497;48.936;9.270;2023-02-25T06:57:30;3.50;;;0.80;;
46751;SDS011;32497;48.936;9.270;2023-02-25T07:13:38;3.50;;;0.70;;
46751;SDS011;32497;48.936;9.270;2023-02-25T07:18:54;2.87;;;0.33;;
46751;SDS011;32497;48.936;9.270;2023-02-25T07:35:25;1.03;;;0.40;;
46751;SDS011;32497;48.936;9.270;2023-02-25T07:56:54;2.80;;;0.37;;
46751;SDS011;32497;48.936;9.270;2023-02-25T08:02:01;0.97;;;0.30;;
46751;SDS011;32497;48.936;9.270;2023-02-25T08:07:07;1.90;;;0.23;;
46751;SDS011;32497;48.936;9.270;2023-02-25T08:12:08;2.47;;;0.50;;
46751;SDS011;32497;48.936;9.270;2023-02-25T08:17:15;2.57;;;0.60;;
46751;SDS011;32497;48.936;9.270;2023-02-25T08:22:24;1.40;;;0.43;;
46751;SDS011;32497;48.936;9.270;2023-02-25T08:27:37;1.00;;;0.50;;
46751;SDS011;32497;48.936;9.270;2023-02-25T08:32:38;1.00;;;0.30;;
46751;SDS011;32497;48.936;9.270;2023-02-25T08:37:41;0.30;;;0.23;;
46751;SDS011;32497;48.936;9.270;2023-02-25T08:42:43;1.43;;;0.60;;
46751;SDS011;32497;48.936;9.270;2023-02-25T08:53:01;0.87;;;0.47;;
46751;SDS011;32497;48.936;9.270;2023-02-25T09:03:31;0.77;;;0.30;;
46751;SDS011;32497;48.936;9.270;2023-02-25T09:08:40;0.67;;;0.30;;
46751;SDS011;32497;48.936;9.270;2023-02-25T09:13:44;0.40;;;0.30;;
46751;SDS011;32497;48.936;9.270;2023-02-25T09:18:45;0.40;;;0.20;;
46751;SDS011;32497;48.936;9.270;2023-02-25T09:23:49;1.30;;;0.47;;
46751;SDS011;32497;48.936;9.270;2023-02-25T09:28:58;2.30;;;0.50;;
46751;SDS011;32497;48.936;9.270;2023-02-25T09:34:15;2.20;;;0.40;;
46751;SDS011;32497;48.936;9.270;2023-02-25T09:39:17;0.83;;;0.30;;
46751;SDS011;32497;48.936;9.270;2023-02-25T09:44:19;1.03;;;0.33;;
46751;SDS011;32497;48.936;9.270;2023-02-25T09:49:52;1.03;;;0.30;;
46751;SDS011;32497;48.936;9.270;2023-02-25T09:55:27;2.10;;;0.40;;
46751;SDS011;32497;48.936;9.270;2023-02-25T10:01:15;0.57;;;0.20;;
46751;SDS011;32497;48.936;9.270;2023-02-25T10:06:28;1.33;;;0.30;;
46751;SDS011;32497;48.936;9.270;2023-02-25T10:18:07;1.53;;;0.40;;
46751;SDS011;32497;48.936;9.270;2023-02-25T10:23:54;2.23;;;0.33;;
46751;SDS011;32497;48.936;9.270;2023-02-25T10:34:59;1.90;;;0.40;;
46751;SDS011;32497;48.936;9.270;2023-02-25T10:40:57;2.00;;;0.30;;
46751;SDS011;32497;48.936;9.270;2023-02-25T10:46:06;0.30;;;0.20;;
46751;SDS011;32497;48.936;9.270;2023-02-25T10:51:36;1.00;;;0.30;;
46751;SDS011;32497;48.936;9.270;2023-02-25T10:56:46;1.53;;;0.40;;
46751;SDS011;32497;48.936;9.270;2023-02-25T11:01:47;1.47;;;0.37;;
46751;SDS011;32497;48.936;9.270;2023-02-25T11:12:55;0.60;;;0.40;;
46751;SDS011;32497;48.936;9.270;2023-02-25T11:23:37;0.57;;;0.20;;
46751;SDS011;32497;48.936;9.270;2023-02-25T11:29:10;2.93;;;0.43;;
46751;SDS011;32497;48.936;9.270;2023-02-25T11:51:35;2.37;;;0.70;;
46751;SDS011;32497;48.936;9.270;2023-02-25T11:57:07;0.87;;;0.40;;
46751;SDS011;32497;48.936;9.270;2023-02-25T12:02:43;1.03;;;0.30;;
46751;SDS011;32497;48.936;9.270;2023-02-25T12:09:09;0.40;;;0.30;;
46751;SDS011;32497;48.936;9.270;2023-02-25T12:25:58;1.77;;;0.77;;
46751;SDS011;32497;48.936;9.270;2023-02-25T12:37:12;1.67;;;0.50;;
46751;SDS011;32497;48.936;9.270;2023-02-25T12:55:25;0.30;;;0.20;;
46751;SDS011;32497;48.936;9.270;2023-02-25T13:07:17;1.30;;;0.50;;
46751;SDS011;32497;48.936;9.270;2023-02-25T13:25:44;1.07;;;0.20;;
46751;SDS011;32497;48.936;9.270;2023-02-25T13:37:38;1.60;;;0.40;;
46751;SDS011;32497;48.936;9.270;2023-02-25T14:31:16;1.67;;;0.47;;
46751;SDS011;32497;48.936;9.270;2023-02-25T14:42:17;3.07;;;0.50;;
46751;SDS011;32497;48.936;9.270;2023-02-25T15:05:02;1.73;;;0.50;;
46751;SDS011;32497;48.936;9.270;2023-02-25T15:10:32;1.37;;;0.50;;
46751;SDS011;32497;48.936;9.270;2023-02-25T15:27:49;1.57;;;0.50;;
46751;SDS011;32497;48.936;9.270;2023-02-25T15:32:56;1.07;;;0.50;;
46751;SDS011;32497;48.936;9.270;2023-02-25T15:39:02;1.10;;;0.53;;
46751;SDS011;32497;48.936;9.270;2023-02-25T16:07:30;0.73;;;0.50;;
46751;SDS011;32497;48.936;9.270;2023-02-25T16:12:55;0.87;;;0.50;;
46751;SDS011;32497;48.936;9.270;2023-02-25T16:30:14;2.43;;;0.60;;
46751;SDS011;32497;48.936;9.270;2023-02-25T16:41:24;5.20;;;0.90;;
46751;SDS011;32497;48.936;9.270;2023-02-25T16:46:41;1.13;;;0.50;;
46751;SDS011;32497;48.936;9.270;2023-02-25T16:51:59;4.17;;;0.80;;
46751;SDS011;32497;48.936;9.270;2023-02-25T16:57:34;1.93;;;1.20;;
46751;SDS011;32497;48.936;9.270;2023-02-25T17:03:08;2.50;;;0.90;;
46751;SDS011;32497;48.936;9.270;2023-02-25T17:08:51;3.93;;;1.40;;
46751;SDS011;32497;48.936;9.270;2023-02-25T17:14:02;1.87;;;0.30;;
46751;SDS011;32497;48.936;9.270;2023-02-25T17:19:12;0.70;;;0.40;;
46751;SDS011;32497;48.936;9.270;2023-02-25T17:35:45;1.60;;;0.43;;
46751;SDS011;32497;48.936;9.270;2023-02-25T17:58:30;1.43;;;0.60;;
46751;SDS011;32497;48.936;9.270;2023-02-25T18:03:41;1.47;;;0.63;;
46751;SDS011;32497;48.936;9.270;2023-02-25T18:25:27;4.00;;;1.20;;
46751;SDS011;32497;48.936;9.270;2023-02-25T18:36:18;2.63;;;1.13;;
46751;SDS011;32497;48.936;9.270;2023-02-25T18:41:56;1.40;;;0.87;;
46751;SDS011;32497;48.936;9.270;2023-02-25T18:46:57;1.13;;;0.53;;
46751;SDS011;32497;48.936;9.270;2023-02-25T18:52:03;1.43;;;1.00;;
46751;SDS011;32497;48.936;9.270;2023-02-25T18:57:16;0.97;;;0.70;;
46751;SDS011;32497;48.936;9.270;2023-02-25T19:08:30;3.63;;;1.10;;
46751;SDS011;32497;48.936;9.270;2023-02-25T19:13:38;3.00;;;1.30;;
46751;SDS011;32497;48.936;9.270;2023-02-25T19:18:56;2.00;;;1.17;;
46751;SDS011;32497;48.936;9.270;2023-02-25T19:29:32;2.17;;;1.03;;
46751;SDS011;32497;48.936;9.270;2023-02-25T19:34:36;3.70;;;1.53;;
46751;SDS011;32497;48.936;9.270;2023-02-25T19:39:38;6.57;;;1.47;;
46751;SDS011;32497;48.936;9.270;2023-02-25T19:44:49;2.90;;;1.10;;
46751;SDS011;32497;48.936;9.270;2023-02-25T19:56:03;2.47;;;1.03;;
46751;SDS011;32497;48.936;9.270;2023-02-25T20:01:39;2.07;;;1.23;;
46751;SDS011;32497;48.936;9.270;2023-02-25T20:12:23;4.97;;;2.77;;
46751;SDS011;32497;48.936;9.270;2023-02-25T20:17:30;8.93;;;2.60;;
46751;SDS011;32497;48.936;9.270;2023-02-25T20:22:46;3.10;;;1.33;;
46751;SDS011;32497;48.936;9.270;2023-02-25T20:33:08;2.43;;;0.90;;
46751;SDS011;32497;48.936;9.270;2023-02-25T20:38:13;2.60;;;0.93;;
46751;SDS011;32497;48.936;9.270;2023-02-25T20:43:52;5.13;;;1.33;;
46751;SDS011;32497;48.936;9.270;2023-02-25T20:54:38;1.23;;;0.80;;
46751;SDS011;32497;48.936;9.270;2023-02-25T20:59:47;1.93;;;0.60;;
46751;SDS011;32497;48.936;9.270;2023-02-25T21:10:32;1.87;;;0.43;;
46751;SDS011;32497;48.936;9.270;2023-02-25T21:15:37;4.73;;;0.70;;
46751;SDS011;32497;48.936;9.270;2023-02-25T21:20:38;2.70;;;1.07;;
46751;SDS011;32497;48.936;9.270;2023-02-25T21:25:40;1.10;;;0.30;;
46751;SDS011;32497;48.936;9.270;2023-02-25T21:31:03;2.23;;;0.67;;
46751;SDS011;32497;48.936;9.270;2023-02-25T21:36:34;1.43;;;0.70;;
46751;SDS011;32497;48.936;9.270;2023-02-25T21:47:05;1.20;;;0.50;;
46751;SDS011;32497;48.936;9.270;2023-02-25T21:52:07;2.10;;;0.53;;
46751;SDS011;32497;48.936;9.270;2023-02-25T21:57:08;0.90;;;0.60;;
46751;SDS011;32497;48.936;9.270;2023-02-25T22:02:15;0.50;;;0.30;;
46751;SDS011;32497;48.936;9.270;2023-02-25T22:08:10;1.57;;;0.50;;
46751;SDS011;32497;48.936;9.270;2023-02-25T22:13:15;1.00;;;0.67;;
46751;SDS011;32497;48.936;9.270;2023-02-25T22:29:09;2.30;;;0.87;;
46751;SDS011;32497;48.936;9.270;2023-02-25T22:34:10;0.67;;;0.37;;
46751;SDS011;32497;48.936;9.270;2023-02-25T22:39:19;0.87;;;0.53;;
46751;SDS011;32497;48.936;9.270;2023-02-25T22:44:20;1.70;;;0.60;;
46751;SDS011;32497;48.936;9.270;2023-02-25T22:49:21;1.53;;;0.47;;
46751;SDS011;32497;48.936;9.270;2023-02-25T23:05:34;4.13;;;0.70;;
46751;SDS011;32497;48.936;9.270;2023-02-25T23:10:40;1.07;;;0.33;;
46751;SDS011;32497;48.936;9.270;2023-02-25T23:21:20;2.10;;;1.13;;
46751;SDS011;32497;48.936;9.270;2023-02-25T23:26:26;1.07;;;0.50;;
46751;SDS011;32497;48.936;9.270;2023-02-25T23:31:44;1.03;;;0.47;;
46751;SDS011;32497;48.936;9.270;2023-02-25T23:36:59;1.20;;;0.60;;
46751;SDS011;32497;48.936;9.270;2023-02-25T23:42:14;0.93;;;0.50;;
46751;SDS011;32497;48.936;9.270;2023-02-25T23:47:15;1.50;;;0.30;;
46751;SDS011;32497;48.936;9.270;2023-02-25T23:52:16;1.27;;;0.60;;
46751;SDS011;32497;48.936;9.270;2023-02-25T23:57:22;2.93;;;0.50;;
